Time;durP1;ratioP1;P1;durP2;ratioP2;P2;SDS_P1;SDS_P2;PMS_P1;PMS_P2;Temp;Humidity;BMP_temperature;BMP_pressure;BME280_temperature;BME280_humidity;BME280_pressure;Samples;Min_cycle;Max_cycle;Signal;HPM_P1;HPM_P2
2021/07/15 00:01:29;;;;;;;0.60;0.43;;;15.60;99.90;;;;;;5037905;28;20030;-90
2021/07/15 00:03:54;;;;;;;0.67;0.67;;;15.70;99.90;;;;;;5034802;28;20036;-90
2021/07/15 00:06:20;;;;;;;0.20;0.20;;;15.70;99.90;;;;;;5037223;28;20025;-90
2021/07/15 00:08:47;;;;;;;0.57;0.57;;;15.60;99.90;;;;;;5048720;28;20032;-90
2021/07/15 00:11:14;;;;;;;0.20;0.20;;;15.70;99.90;;;;;;5034098;28;20056;-91
2021/07/15 00:13:40;;;;;;;;;;;15.70;99.90;;;;;;5037474;28;20570;-90
2021/07/15 00:16:10;;;;;;;0.88;0.57;;;15.80;99.90;;;;;;5050257;28;19908;-90
2021/07/15 00:18:40;;;;;;;0.28;0.28;;;15.70;99.90;;;;;;5044207;28;20488;-90
2021/07/15 00:21:09;;;;;;;0.57;0.38;;;15.70;99.90;;;;;;5046146;28;20029;-90
2021/07/15 00:23:36;;;;;;;0.43;0.43;;;15.70;99.90;;;;;;5052337;28;20021;-90
2021/07/15 00:26:04;;;;;;;;;;;15.70;99.90;;;;;;5048548;28;20401;-90
2021/07/15 00:28:30;;;;;;;0.20;0.20;;;15.70;99.90;;;;;;5039741;28;19909;-91
2021/07/15 00:30:57;;;;;;;0.25;0.25;;;15.70;99.90;;;;;;5035437;28;20029;-91
2021/07/15 00:33:23;;;;;;;0.75;0.75;;;15.70;99.90;;;;;;5034266;28;20029;-91
2021/07/15 00:35:49;;;;;;;0.50;0.50;;;15.70;99.90;;;;;;5033728;28;20033;-91
2021/07/15 00:38:15;;;;;;;1.07;0.70;;;15.70;99.90;;;;;;5033828;28;20494;-90
2021/07/15 00:40:41;;;;;;;0.20;0.20;;;15.70;99.90;;;;;;5042256;28;20520;-90
2021/07/15 00:43:07;;;;;;;0.43;0.43;;;15.70;99.90;;;;;;5053700;28;20096;-91
2021/07/15 00:45:34;;;;;;;16.98;1.02;;;15.70;99.90;;;;;;5040720;28;20033;-91
2021/07/15 00:48:00;;;;;;;;;;;15.70;99.90;;;;;;5053441;28;20032;-90
2021/07/15 00:50:26;;;;;;;0.57;0.30;;;15.80;99.90;;;;;;5054728;28;19905;-90
2021/07/15 00:52:53;;;;;;;0.40;0.40;;;15.80;99.90;;;;;;5044098;28;20041;-90
2021/07/15 00:55:25;;;;;;;0.45;0.20;;;15.80;99.90;;;;;;5047215;28;20052;-90
2021/07/15 00:57:51;;;;;;;0.35;0.35;;;15.70;99.90;;;;;;5033888;28;20520;-91
2021/07/15 01:00:18;;;;;;;1.42;0.30;;;15.70;99.90;;;;;;5033842;28;20021;-91
2021/07/15 01:02:43;;;;;;;;;;;15.70;99.90;;;;;;5034064;28;20448;-91
2021/07/15 01:05:14;;;;;;;0.10;0.10;;;15.70;99.90;;;;;;5052825;28;19904;-91
2021/07/15 01:07:40;;;;;;;1.33;0.50;;;15.70;99.90;;;;;;5034348;28;20037;-91
2021/07/15 01:10:08;;;;;;;0.10;0.10;;;15.80;99.90;;;;;;5046013;28;20048;-90
2021/07/15 01:12:49;;;;;;;0.55;0.55;;;15.70;99.90;;;;;;5038952;28;20036;-90
2021/07/15 01:15:22;;;;;;;0.45;0.45;;;15.70;99.90;;;;;;5040117;28;20102;-90
2021/07/15 01:18:09;;;;;;;1.27;0.88;;;15.70;99.90;;;;;;5037963;28;20425;-91
2021/07/15 01:21:04;;;;;;;0.52;0.52;;;15.80;99.90;;;;;;5034975;28;20052;-92
2021/07/15 01:24:01;;;;;;;0.22;0.22;;;15.70;99.90;;;;;;5036473;28;20038;-91
2021/07/15 01:26:54;;;;;;;0.20;0.20;;;15.70;99.90;;;;;;5044532;28;20025;-91
2021/07/15 01:29:50;;;;;;;0.25;0.25;;;15.60;99.90;;;;;;5050036;28;20489;-91
2021/07/15 01:32:20;;;;;;;0.50;0.25;;;15.60;99.90;;;;;;5041958;28;20033;-91
2021/07/15 01:34:48;;;;;;;0.13;0.13;;;15.60;99.90;;;;;;5032935;28;20052;-91
2021/07/15 01:37:14;;;;;;;0.25;0.25;;;15.60;99.90;;;;;;5035510;28;20036;-90
2021/07/15 01:39:44;;;;;;;0.38;0.38;;;15.60;99.90;;;;;;5041905;28;20022;-90
2021/07/15 01:42:14;;;;;;;0.20;0.20;;;15.60;99.90;;;;;;5045922;28;20096;-91
2021/07/15 01:44:41;;;;;;;0.30;0.30;;;15.50;99.90;;;;;;5041570;28;20029;-90
2021/07/15 01:47:07;;;;;;;0.47;0.30;;;15.50;99.90;;;;;;5036920;28;20025;-90
2021/07/15 01:49:33;;;;;;;0.27;0.27;;;15.60;99.90;;;;;;5037626;28;20579;-91
2021/07/15 01:52:00;;;;;;;0.10;0.10;;;15.60;99.90;;;;;;5040872;28;20028;-90
2021/07/15 01:54:27;;;;;;;0.05;0.05;;;15.60;99.90;;;;;;5039919;28;20043;-90
2021/07/15 01:56:54;;;;;;;;;;;15.60;99.90;;;;;;5037353;28;20087;-91
2021/07/15 01:59:25;;;;;;;;;;;15.50;99.90;;;;;;5040299;28;19996;-90
2021/07/15 02:01:53;;;;;;;1.17;0.20;;;15.50;99.90;;;;;;5040119;28;19917;-90
2021/07/15 02:04:19;;;;;;;1.88;0.68;;;15.50;99.90;;;;;;5035648;28;20484;-91
2021/07/15 02:06:49;;;;;;;0.52;0.52;;;15.60;99.90;;;;;;5036820;28;20038;-91
2021/07/15 02:09:16;;;;;;;0.35;0.32;;;15.50;99.90;;;;;;5033638;28;20052;-90
2021/07/15 02:11:42;;;;;;;;;;;15.50;99.90;;;;;;5038228;28;20032;-90
2021/07/15 02:14:11;;;;;;;0.30;0.30;;;15.50;99.90;;;;;;5038670;28;19913;-90
2021/07/15 02:16:41;;;;;;;0.77;0.77;;;15.50;99.90;;;;;;5039741;28;20370;-90
2021/07/15 02:19:08;;;;;;;0.43;0.43;;;15.50;99.90;;;;;;5035291;28;20432;-90
2021/07/15 02:21:36;;;;;;;0.10;0.10;;;15.50;99.90;;;;;;5036230;28;20026;-90
2021/07/15 02:24:06;;;;;;;1.02;0.30;;;15.50;99.90;;;;;;5034225;28;20045;-91
2021/07/15 02:26:35;;;;;;;1.23;0.20;;;15.40;99.90;;;;;;5032789;28;20072;-90
2021/07/15 02:29:00;;;;;;;0.60;0.57;;;15.40;99.90;;;;;;5032718;28;20034;-90
2021/07/15 02:31:55;;;;;;;0.70;0.70;;;15.40;99.90;;;;;;5041535;28;20087;-90
2021/07/15 02:34:28;;;;;;;0.30;0.30;;;15.40;99.90;;;;;;5039040;28;20063;-90
2021/07/15 02:37:00;;;;;;;0.40;0.40;;;15.30;99.90;;;;;;5038894;28;20087;-90
2021/07/15 02:39:26;;;;;;;0.40;0.40;;;15.30;99.90;;;;;;5041211;28;20028;-90
2021/07/15 02:41:52;;;;;;;0.55;0.55;;;15.30;99.90;;;;;;5040940;28;20029;-91
2021/07/15 02:44:18;;;;;;;0.67;0.50;;;15.30;99.90;;;;;;5038621;28;20033;-91
2021/07/15 02:46:44;;;;;;;1.40;1.30;;;15.30;99.90;;;;;;5042069;28;20280;-90
2021/07/15 02:49:10;;;;;;;0.20;0.20;;;15.30;99.90;;;;;;5036852;28;20033;-90
2021/07/15 02:51:36;;;;;;;0.52;0.52;;;15.30;99.90;;;;;;5039834;28;20563;-90
2021/07/15 02:54:02;;;;;;;0.13;0.13;;;15.30;99.90;;;;;;5037073;28;20034;-90
2021/07/15 02:56:32;;;;;;;0.40;0.40;;;15.30;99.90;;;;;;5036150;28;20406;-91
2021/07/15 02:59:13;;;;;;;3.30;1.27;;;15.30;99.90;;;;;;5044197;28;20529;-91
2021/07/15 03:01:49;;;;;;;1.30;0.25;;;15.30;99.90;;;;;;5036513;28;20110;-90
2021/07/15 03:04:22;;;;;;;0.63;0.63;;;15.30;99.90;;;;;;5035357;28;20033;-90
2021/07/15 03:06:49;;;;;;;0.30;0.30;;;15.30;99.90;;;;;;5035773;28;20326;-91
2021/07/15 03:09:28;;;;;;;0.35;0.30;;;15.30;99.90;;;;;;5039851;28;20116;-90
2021/07/15 03:12:05;;;;;;;0.32;0.32;;;15.30;99.90;;;;;;5031968;28;20044;-91
2021/07/15 03:14:35;;;;;;;0.57;0.52;;;15.20;99.90;;;;;;5041256;28;20074;-90
2021/07/15 03:17:02;;;;;;;1.02;0.30;;;15.20;99.90;;;;;;5036308;28;20116;-91
2021/07/15 03:19:31;;;;;;;0.25;0.25;;;15.20;99.90;;;;;;5040177;28;20044;-90
2021/07/15 03:22:01;;;;;;;0.30;0.30;;;15.20;99.90;;;;;;5031585;28;20022;-90
2021/07/15 03:24:29;;;;;;;0.20;0.20;;;15.10;99.90;;;;;;5039880;28;20649;-91
2021/07/15 03:26:57;;;;;;;0.17;0.17;;;15.10;99.90;;;;;;5037931;28;20029;-91
2021/07/15 03:29:24;;;;;;;0.00;0.00;;;15.10;99.90;;;;;;5035435;28;20030;-91
2021/07/15 03:31:53;;;;;;;0.28;0.28;;;15.10;99.90;;;;;;5040899;28;20033;-91
2021/07/15 03:34:20;;;;;;;0.22;0.22;;;15.10;99.90;;;;;;5047227;28;20040;-90
2021/07/15 03:36:50;;;;;;;0.82;0.82;;;15.10;99.90;;;;;;5036492;28;20035;-91
2021/07/15 03:39:17;;;;;;;0.22;0.22;;;15.10;99.90;;;;;;5040921;28;20115;-91
2021/07/15 03:41:45;;;;;;;0.47;0.47;;;15.10;99.90;;;;;;5040174;28;20488;-90
2021/07/15 03:44:13;;;;;;;0.40;0.40;;;15.00;99.90;;;;;;5045772;28;20107;-91
2021/07/15 03:46:41;;;;;;;2.15;0.88;;;15.00;99.90;;;;;;5045129;28;20030;-90
2021/07/15 03:49:08;;;;;;;1.05;0.85;;;15.00;99.90;;;;;;5035899;28;20033;-91
2021/07/15 03:51:35;;;;;;;0.28;0.28;;;14.90;99.90;;;;;;5034769;28;20109;-91
2021/07/15 03:54:02;;;;;;;0.40;0.40;;;14.80;1.00;;;;;;5039341;28;20096;-91
2021/07/15 03:56:29;;;;;;;;;;;14.80;1.00;;;;;;5038719;28;20040;-90
2021/07/15 03:59:00;;;;;;;0.40;0.40;;;14.80;51.60;;;;;;5039183;28;19920;-90
2021/07/15 04:01:31;;;;;;;0.30;0.30;;;14.70;50.00;;;;;;5034300;28;20022;-90
2021/07/15 04:04:00;;;;;;;12.77;2.53;;;14.80;99.90;;;;;;5044859;28;20025;-90
2021/07/15 04:06:28;;;;;;;0.73;0.55;;;14.90;57.60;;;;;;5036360;28;20409;-90
2021/07/15 04:08:57;;;;;;;1.27;0.35;;;14.80;99.90;;;;;;5050364;28;20060;-90
2021/07/15 04:11:23;;;;;;;0.50;0.50;;;14.80;99.90;;;;;;5035890;28;20041;-89
2021/07/15 04:13:50;;;;;;;0.73;0.73;;;14.70;99.90;;;;;;5044179;28;20059;-90
2021/07/15 04:16:31;;;;;;;0.20;0.20;;;14.80;1.00;;;;;;5042452;28;20038;-90
2021/07/15 04:19:00;;;;;;;0.30;0.30;;;14.80;1.00;;;;;;5040967;28;20021;-90
2021/07/15 04:21:26;;;;;;;1.05;0.93;;;14.80;99.90;;;;;;5040107;28;20503;-90
2021/07/15 04:23:55;;;;;;;0.63;0.63;;;14.80;1.00;;;;;;5041047;28;20102;-90
2021/07/15 04:26:23;;;;;;;0.43;0.43;;;14.80;1.00;;;;;;5040108;28;20072;-90
2021/07/15 04:28:50;;;;;;;0.47;0.47;;;14.70;99.90;;;;;;5046297;28;20480;-90
2021/07/15 04:31:37;;;;;;;1.65;0.40;;;14.80;99.90;;;;;;5043210;28;20547;-90
2021/07/15 04:34:04;;;;;;;2.00;0.98;;;14.70;56.40;;;;;;5037432;28;20030;-90
2021/07/15 04:36:31;;;;;;;1.80;1.17;;;14.70;99.90;;;;;;5045813;28;20401;-91
2021/07/15 04:38:59;;;;;;;0.57;0.35;;;14.70;99.90;;;;;;5045008;28;20029;-90
2021/07/15 04:41:26;;;;;;;0.40;0.40;;;14.70;99.90;;;;;;5048058;28;20025;-90
2021/07/15 04:43:54;;;;;;;0.63;0.63;;;14.70;99.90;;;;;;5042160;28;20116;-90
2021/07/15 04:46:20;;;;;;;0.47;0.47;;;14.80;99.90;;;;;;5045135;28;20037;-91
2021/07/15 04:48:47;;;;;;;1.95;0.52;;;14.80;99.90;;;;;;5042714;28;20070;-90
2021/07/15 04:51:16;;;;;;;0.47;0.47;;;14.80;99.90;;;;;;5041825;28;20520;-90
2021/07/15 04:53:43;;;;;;;0.10;0.10;;;14.80;99.90;;;;;;5044543;28;20033;-89
2021/07/15 04:56:10;;;;;;;0.50;0.50;;;16.10;99.90;;;;;;5047553;28;20049;-90
2021/07/15 04:58:36;;;;;;;0.77;0.77;;;16.20;99.90;;;;;;5045385;28;20022;-88
2021/07/15 05:01:03;;;;;;;0.47;0.47;;;16.30;99.90;;;;;;5035174;28;20040;-89
2021/07/15 05:03:35;;;;;;;0.38;0.38;;;16.20;99.90;;;;;;5039352;28;20013;-90
2021/07/15 05:06:04;;;;;;;0.20;0.20;;;16.30;99.90;;;;;;5035809;28;20037;-89
2021/07/15 05:08:31;;;;;;;0.20;0.20;;;16.40;99.90;;;;;;5039645;28;20035;-89
2021/07/15 05:10:57;;;;;;;;;;;16.40;99.90;;;;;;5046003;28;20071;-88
2021/07/15 05:13:23;;;;;;;0.10;0.10;;;16.50;99.90;;;;;;5040586;28;19916;-89
2021/07/15 05:15:50;;;;;;;0.40;0.40;;;16.60;1.00;;;;;;5039235;28;20041;-89
2021/07/15 05:18:16;;;;;;;1.08;0.57;;;16.30;1.00;;;;;;5037819;28;20040;-90
2021/07/15 05:20:42;;;;;;;0.23;0.23;;;16.30;1.00;;;;;;5030790;28;20026;-89
2021/07/15 05:23:08;;;;;;;0.40;0.40;;;16.40;1.00;;;;;;5033196;28;20116;-89
2021/07/15 05:25:34;;;;;;;0.90;0.57;;;16.40;1.00;;;;;;5031628;28;20116;-88
2021/07/15 05:28:00;;;;;;;0.75;0.75;;;16.40;41.30;;;;;;5031134;28;20091;-88
2021/07/15 05:30:26;;;;;;;0.43;0.43;;;16.20;70.70;;;;;;5036923;28;20033;-89
2021/07/15 05:32:52;;;;;;;0.43;0.43;;;16.30;99.90;;;;;;5051223;28;20040;-88
2021/07/15 05:35:17;;;;;;;1.73;0.73;;;16.30;99.90;;;;;;5048447;28;20070;-89
2021/07/15 05:37:44;;;;;;;0.37;0.37;;;16.20;99.90;;;;;;5048178;28;20040;-88
2021/07/15 05:40:11;;;;;;;1.15;0.35;;;16.20;99.90;;;;;;5050152;28;20025;-89
2021/07/15 05:42:37;;;;;;;;;;;16.30;99.90;;;;;;5050732;28;20025;-88
2021/07/15 05:45:04;;;;;;;0.17;0.17;;;16.20;99.90;;;;;;5050302;28;19954;-90
2021/07/15 05:47:30;;;;;;;0.15;0.15;;;16.30;99.90;;;;;;5050463;28;20059;-88
2021/07/15 05:49:56;;;;;;;0.57;0.57;;;16.30;99.90;;;;;;5050402;28;20064;-88
2021/07/15 05:52:21;;;;;;;0.43;0.43;;;16.30;99.90;;;;;;5050515;28;20060;-88
2021/07/15 05:54:47;;;;;;;0.30;0.30;;;16.40;99.90;;;;;;5038648;28;20042;-89
2021/07/15 05:57:13;;;;;;;0.10;0.10;;;16.40;99.90;;;;;;5030375;28;20037;-88
2021/07/15 05:59:39;;;;;;;3.00;1.60;;;16.30;99.90;;;;;;5029145;28;20083;-87
2021/07/15 06:02:05;;;;;;;0.20;0.20;;;16.40;99.90;;;;;;5030207;28;20135;-87
2021/07/15 06:04:30;;;;;;;0.27;0.27;;;16.40;99.90;;;;;;5030843;28;20029;-88
2021/07/15 06:06:56;;;;;;;0.50;0.50;;;16.50;1.00;;;;;;5028663;28;20037;-88
2021/07/15 06:09:22;;;;;;;0.23;0.23;;;16.50;1.00;;;;;;5048323;28;20021;-88
2021/07/15 06:11:48;;;;;;;0.47;0.47;;;16.40;1.00;;;;;;5049766;28;20119;-89
2021/07/15 06:14:14;;;;;;;0.10;0.10;;;16.50;1.00;;;;;;5050587;28;20040;-92
2021/07/15 06:16:40;;;;;;;0.43;0.20;;;16.60;1.00;;;;;;5049348;28;20484;-92
2021/07/15 06:19:06;;;;;;;1.70;0.30;;;16.70;1.00;;;;;;5046547;28;20402;-92
2021/07/15 06:21:32;;;;;;;0.85;0.45;;;16.60;1.00;;;;;;5048615;28;20032;-91
2021/07/15 06:23:57;;;;;;;2.70;0.37;;;16.60;1.00;;;;;;5036842;28;20017;-92
2021/07/15 06:26:23;;;;;;;0.67;0.67;;;16.50;1.00;;;;;;5048993;28;20492;-93
2021/07/15 06:28:49;;;;;;;15.57;2.43;;;16.60;9.10;;;;;;5039685;28;20745;-89
2021/07/15 06:31:15;;;;;;;0.57;0.37;;;16.50;34.70;;;;;;5049270;28;20049;-90
2021/07/15 06:33:41;;;;;;;0.00;0.00;;;16.70;83.10;;;;;;5047886;28;20028;-90
2021/07/15 06:36:08;;;;;;;0.10;0.10;;;16.60;85.20;;;;;;5046681;28;20048;-90
2021/07/15 06:38:38;;;;;;;14.80;0.75;;;16.70;99.90;;;;;;5044348;28;20183;-90
2021/07/15 06:41:08;;;;;;;0.45;0.45;;;16.80;99.90;;;;;;5027409;28;20040;-90
2021/07/15 06:43:35;;;;;;;0.52;0.52;;;16.90;99.90;;;;;;5027853;28;20079;-90
2021/07/15 06:46:01;;;;;;;0.47;0.47;;;17.20;99.90;;;;;;5027968;28;20116;-90
2021/07/15 06:48:28;;;;;;;1.10;0.40;;;17.10;99.90;;;;;;5027723;28;20108;-90
2021/07/15 06:50:54;;;;;;;0.17;0.17;;;17.30;99.90;;;;;;5029933;28;20028;-88
2021/07/15 06:53:20;;;;;;;0.10;0.10;;;16.80;99.90;;;;;;5028726;28;20845;-90
2021/07/15 06:55:46;;;;;;;0.35;0.35;;;16.80;1.00;;;;;;5037138;28;20505;-88
2021/07/15 06:58:12;;;;;;;0.67;0.67;;;16.70;27.70;;;;;;5033513;28;20052;-88
2021/07/15 07:00:38;;;;;;;0.00;0.00;;;16.80;99.90;;;;;;5038907;28;20024;-89
2021/07/15 07:03:04;;;;;;;0.03;0.03;;;16.70;99.90;;;;;;5036235;28;20104;-88
2021/07/15 07:05:30;;;;;;;0.67;0.40;;;16.60;68.10;;;;;;5044570;28;20271;-88
2021/07/15 07:07:55;;;;;;;4.83;0.53;;;16.50;40.50;;;;;;5032022;28;20393;-88
2021/07/15 07:10:21;;;;;;;0.60;0.60;;;16.40;38.40;;;;;;5035426;28;20040;-89
2021/07/15 07:12:48;;;;;;;1.30;0.50;;;16.70;99.90;;;;;;5043182;28;20082;-89
2021/07/15 07:15:16;;;;;;;0.60;0.60;;;16.20;99.90;;;;;;5037835;28;20405;-87
2021/07/15 07:17:42;;;;;;;0.47;0.47;;;16.20;99.90;;;;;;5032538;28;20083;-88
2021/07/15 07:20:10;;;;;;;0.20;0.20;;;16.40;99.90;;;;;;5044155;28;20813;-88
2021/07/15 07:22:36;;;;;;;0.22;0.22;;;16.40;99.90;;;;;;5035392;28;20034;-90
2021/07/15 07:25:06;;;;;;;0.50;0.50;;;16.30;99.90;;;;;;5035294;28;20030;-89
2021/07/15 07:27:32;;;;;;;1.17;0.65;;;16.20;99.90;;;;;;5027888;28;20029;-89
2021/07/15 07:30:01;;;;;;;0.37;0.27;;;16.20;99.90;;;;;;5037885;28;20036;-88
2021/07/15 07:32:27;;;;;;;0.32;0.32;;;16.60;99.90;;;;;;5037746;28;20639;-89
2021/07/15 07:34:53;;;;;;;0.23;0.23;;;16.00;99.90;;;;;;5037056;28;20035;-88
2021/07/15 07:37:19;;;;;;;0.10;0.10;;;15.90;99.90;;;;;;5032477;28;20037;-88
2021/07/15 07:39:45;;;;;;;0.30;0.30;;;16.00;99.90;;;;;;5028316;28;20036;-89
2021/07/15 07:42:11;;;;;;;1.60;0.77;;;16.00;1.00;;;;;;5046771;28;20643;-88
2021/07/15 07:44:37;;;;;;;0.20;0.20;;;16.10;99.90;;;;;;5048032;28;20096;-88
2021/07/15 07:47:03;;;;;;;0.27;0.27;;;16.20;99.90;;;;;;5048358;28;20029;-88
2021/07/15 07:49:29;;;;;;;0.43;0.43;;;16.40;99.90;;;;;;5046914;28;20059;-88
2021/07/15 07:51:55;;;;;;;0.20;0.20;;;16.40;99.90;;;;;;5046847;28;20075;-88
2021/07/15 07:54:21;;;;;;;0.30;0.30;;;16.60;99.90;;;;;;5046785;28;20048;-88
2021/07/15 07:56:46;;;;;;;0.30;0.30;;;16.90;99.90;;;;;;5047059;28;20378;-88
2021/07/15 07:59:12;;;;;;;0.53;0.50;;;16.50;99.90;;;;;;5043364;28;20485;-88
2021/07/15 08:01:39;;;;;;;0.50;0.50;;;16.40;99.90;;;;;;5032324;28;20071;-87
2021/07/15 08:04:06;;;;;;;0.13;0.13;;;16.60;99.90;;;;;;5048137;28;20116;-88
2021/07/15 08:06:36;;;;;;;0.20;0.20;;;16.80;99.90;;;;;;5046716;28;20040;-89
2021/07/15 08:09:06;;;;;;;0.57;0.57;;;16.60;99.90;;;;;;5048144;28;20035;-88
2021/07/15 08:11:32;;;;;;;0.30;0.30;;;16.60;99.90;;;;;;5035186;28;20112;-89
2021/07/15 08:13:58;;;;;;;0.27;0.27;;;16.80;99.90;;;;;;5027943;28;20550;-89
2021/07/15 08:16:24;;;;;;;0.50;0.50;;;17.00;99.90;;;;;;5036052;28;20029;-91
2021/07/15 08:18:50;;;;;;;0.57;0.57;;;17.00;99.90;;;;;;5036739;28;20140;-89
2021/07/15 08:21:20;;;;;;;0.20;0.20;;;16.90;99.90;;;;;;5037273;28;20053;-89
2021/07/15 08:23:47;;;;;;;0.10;0.10;;;17.20;99.90;;;;;;5044889;28;20140;-89
2021/07/15 08:26:13;;;;;;;0.47;0.47;;;17.10;99.90;;;;;;5042822;28;20036;-90
2021/07/15 08:28:39;;;;;;;0.10;0.10;;;17.30;99.90;;;;;;5047175;28;20025;-90
2021/07/15 08:31:05;;;;;;;0.40;0.40;;;17.90;99.90;;;;;;5037809;28;20039;-90
2021/07/15 08:33:31;;;;;;;0.10;0.10;;;18.60;99.90;;;;;;5036069;28;20037;-91
2021/07/15 08:35:57;;;;;;;0.30;0.30;;;18.30;99.90;;;;;;5040231;28;20021;-88
2021/07/15 08:38:25;;;;;;;1.13;1.00;;;18.10;99.90;;;;;;5037109;28;20386;-89
2021/07/15 08:40:53;;;;;;;0.20;0.20;;;18.10;99.90;;;;;;5035985;28;20613;-88
2021/07/15 08:43:19;;;;;;;0.33;0.33;;;17.80;99.90;;;;;;5037233;28;20029;-89
2021/07/15 08:45:46;;;;;;;0.32;0.32;;;17.60;99.90;;;;;;5038201;28;20029;-89
2021/07/15 08:48:13;;;;;;;0.30;0.30;;;17.20;99.90;;;;;;5040037;28;20026;-88
2021/07/15 08:50:40;;;;;;;0.65;0.65;;;17.10;99.90;;;;;;5039072;28;20036;-88
2021/07/15 08:53:06;;;;;;;0.20;0.20;;;17.00;99.90;;;;;;5039700;28;20033;-88
2021/07/15 08:58:18;;;;;;;1.05;0.30;;;17.30;99.90;;;;;;5043564;28;20060;-88
2021/07/15 09:00:45;;;;;;;0.47;0.47;;;17.80;99.90;;;;;;5045798;28;20021;-88
2021/07/15 09:03:11;;;;;;;0.50;0.50;;;18.50;99.90;;;;;;5044379;28;20040;-88
2021/07/15 09:05:42;;;;;;;1.45;0.80;;;19.50;99.90;;;;;;5033745;28;20029;-87
2021/07/15 09:08:08;;;;;;;1.88;0.70;;;19.80;99.90;;;;;;5039850;28;20056;-88
2021/07/15 09:10:35;;;;;;;1.10;0.55;;;18.90;99.90;;;;;;5039001;28;20029;-86
2021/07/15 09:13:07;;;;;;;0.32;0.32;;;18.60;99.90;;;;;;5036452;28;20021;-87
2021/07/15 09:15:45;;;;;;;0.40;0.40;;;18.50;99.90;;;;;;5035408;28;20020;-88
2021/07/15 09:18:13;;;;;;;0.05;0.05;;;18.60;99.90;;;;;;5035148;28;20029;-87
2021/07/15 09:20:39;;;;;;;3.03;0.73;;;17.90;99.90;;;;;;5043878;28;20051;-87
2021/07/15 09:23:07;;;;;;;0.68;0.32;;;17.70;99.90;;;;;;5040871;28;20033;-88
2021/07/15 09:25:39;;;;;;;0.30;0.30;;;17.50;99.90;;;;;;5043838;28;20057;-87
2021/07/15 09:28:10;;;;;;;0.57;0.50;;;17.50;99.90;;;;;;5034334;28;20040;-86
2021/07/15 09:30:38;;;;;;;0.52;0.52;;;17.90;99.90;;;;;;5038479;28;20063;-87
2021/07/15 09:33:11;;;;;;;2.30;0.40;;;18.10;99.90;;;;;;5028489;28;20037;-87
2021/07/15 09:35:46;;;;;;;0.80;0.30;;;18.80;99.90;;;;;;5040702;28;20021;-87
2021/07/15 09:38:20;;;;;;;0.52;0.52;;;19.40;99.90;;;;;;5033461;28;20026;-88
2021/07/15 09:40:59;;;;;;;0.20;0.20;;;19.40;99.90;;;;;;5034710;28;20037;-89
2021/07/15 09:43:34;;;;;;;1.50;0.57;;;18.50;99.90;;;;;;5032820;28;20025;-90
2021/07/15 09:46:21;;;;;;;0.20;0.20;;;18.80;99.90;;;;;;5038368;28;20032;-90
2021/07/15 09:48:50;;;;;;;0.00;0.00;;;19.20;99.90;;;;;;5035412;28;20145;-89
2021/07/15 09:51:17;;;;;;;0.30;0.30;;;20.10;99.90;;;;;;5030647;28;20048;-89
2021/07/15 09:53:44;;;;;;;1.55;0.85;;;20.00;99.90;;;;;;5027911;28;20134;-89
2021/07/15 09:56:16;;;;;;;0.25;0.25;;;19.80;99.90;;;;;;5030499;28;20045;-88
2021/07/15 09:58:48;;;;;;;0.30;0.30;;;19.70;99.90;;;;;;5030407;28;20033;-90
2021/07/15 10:01:22;;;;;;;0.30;0.22;;;19.60;99.90;;;;;;5037333;28;20103;-89
2021/07/15 10:03:54;;;;;;;0.20;0.20;;;20.00;99.90;;;;;;5036590;28;20057;-89
2021/07/15 10:06:20;;;;;;;0.13;0.13;;;20.80;99.90;;;;;;5048179;28;20047;-87
2021/07/15 10:08:52;;;;;;;0.35;0.35;;;21.70;99.90;;;;;;5038854;28;20029;-87
2021/07/15 10:11:36;;;;;;;0.22;0.22;;;22.80;99.90;;;;;;5041865;28;20078;-89
2021/07/15 10:14:08;;;;;;;0.17;0.17;;;23.00;99.90;;;;;;5034203;28;20040;-88
2021/07/15 10:16:42;;;;;;;0.50;0.50;;;21.60;99.90;;;;;;5035442;28;20084;-87
2021/07/15 10:19:20;;;;;;;0.20;0.20;;;20.70;99.90;;;;;;5030158;28;20681;-89
2021/07/15 10:21:54;;;;;;;0.35;0.30;;;20.10;99.90;;;;;;5034200;28;20152;-87
2021/07/15 10:24:22;;;;;;;0.32;0.32;;;19.50;99.90;;;;;;5034597;28;20104;-89
2021/07/15 10:26:50;;;;;;;0.57;0.40;;;19.10;99.90;;;;;;5037220;28;20030;-90
2021/07/15 10:29:18;;;;;;;0.30;0.22;;;19.50;99.90;;;;;;5029890;28;20071;-90
2021/07/15 10:31:45;;;;;;;0.47;0.20;;;20.90;99.90;;;;;;5040622;28;20025;-90
2021/07/15 10:34:12;;;;;;;0.70;0.60;;;22.30;99.90;;;;;;5037153;28;20493;-91
2021/07/15 10:36:39;;;;;;;0.10;0.10;;;21.90;99.90;;;;;;5038549;28;20464;-90
2021/07/15 10:39:17;;;;;;;0.52;0.30;;;27.40;99.90;;;;;;5039545;28;20025;-90
2021/07/15 10:41:45;;;;;;;0.90;0.43;;;26.20;99.90;;;;;;5029642;28;20029;-90
2021/07/15 10:44:12;;;;;;;0.35;0.35;;;22.00;99.90;;;;;;5033248;28;20052;-91
2021/07/15 10:46:38;;;;;;;0.30;0.30;;;20.90;99.90;;;;;;5038369;28;20040;-88
2021/07/15 10:49:08;;;;;;;;;;;20.80;99.90;;;;;;5038022;28;20047;-88
2021/07/15 10:51:36;;;;;;;0.38;0.17;;;25.70;99.90;;;;;;5042371;28;19909;-90
2021/07/15 10:54:05;;;;;;;0.17;0.17;;;30.20;99.90;;;;;;5039235;28;20024;-89
2021/07/15 10:56:33;;;;;;;0.25;0.22;;;25.90;99.90;;;;;;5043485;28;20212;-90
2021/07/15 10:59:00;;;;;;;0.75;0.57;;;24.00;99.90;;;;;;5040074;28;20168;-91
2021/07/15 11:01:36;;;;;;;0.47;0.40;;;27.70;99.90;;;;;;5048283;28;20021;-91
2021/07/15 11:04:14;;;;;;;0.15;0.10;;;27.90;99.90;;;;;;5034973;28;20032;-89
2021/07/15 11:06:40;;;;;;;0.30;0.30;;;28.10;99.90;;;;;;5034044;28;20079;-88
2021/07/15 11:09:10;;;;;;;0.00;0.00;;;28.50;99.90;;;;;;5034695;28;20103;-89
2021/07/15 11:11:39;;;;;;;0.38;0.30;;;29.80;99.90;;;;;;5035772;28;20201;-88
2021/07/15 11:14:06;;;;;;;1.85;0.65;;;29.00;99.90;;;;;;5035435;28;20026;-90
2021/07/15 11:16:50;;;;;;;1.17;0.32;;;29.60;99.90;;;;;;5037982;28;20032;-88
2021/07/15 11:19:56;;;;;;;1.40;0.63;;;24.20;99.90;;;;;;5041897;28;20086;-89
2021/07/15 11:22:55;;;;;;;0.63;0.30;;;25.90;99.90;;;;;;5038110;28;20060;-89
2021/07/15 11:25:39;;;;;;;0.00;0.00;;;23.90;99.90;;;;;;5034337;28;20026;-90
2021/07/15 11:28:11;;;;;;;0.10;0.10;;;22.50;99.90;;;;;;5040334;28;20398;-90
2021/07/15 11:30:36;;;;;;;0.10;0.10;;;22.90;99.90;;;;;;5030435;28;20034;-88
2021/07/15 11:33:23;;;;;;;0.00;0.00;;;25.20;99.90;;;;;;5030193;28;20017;-88
2021/07/15 11:36:25;;;;;;;0.32;0.32;;;23.50;99.90;;;;;;5034844;28;20021;-90
2021/07/15 11:39:00;;;;;;;4.70;1.90;;;21.80;99.90;;;;;;5038159;28;20033;-89
2021/07/15 11:41:47;;;;;;;0.20;0.20;;;22.00;99.90;;;;;;5030881;28;20029;-91
2021/07/15 11:44:13;;;;;;;0.38;0.32;;;21.40;99.90;;;;;;5034500;28;20022;-91
2021/07/15 11:46:39;;;;;;;;;;;22.30;99.90;;;;;;5039201;28;20026;-90
2021/07/15 11:49:19;;;;;;;0.43;0.43;;;21.70;99.90;;;;;;5038694;28;19913;-91
2021/07/15 11:51:49;;;;;;;0.40;0.22;;;21.80;99.90;;;;;;5047738;28;20045;-88
2021/07/15 11:54:32;;;;;;;10.98;0.50;;;22.30;99.90;;;;;;5041108;28;20079;-89
2021/07/15 11:56:59;;;;;;;0.20;0.20;;;22.70;99.90;;;;;;5038103;28;20408;-88
2021/07/15 11:59:46;;;;;;;0.50;0.50;;;22.50;99.90;;;;;;5038067;28;20475;-88
2021/07/15 12:02:38;;;;;;;0.63;0.63;;;23.20;99.90;;;;;;5040240;28;20019;-88
2021/07/15 12:05:07;;;;;;;0.17;0.17;;;23.10;99.90;;;;;;5035509;28;21365;-88
2021/07/15 12:08:00;;;;;;;0.20;0.20;;;22.80;99.90;;;;;;5039680;28;20496;-87
2021/07/15 12:10:29;;;;;;;0.10;0.10;;;23.60;99.90;;;;;;5045210;28;20036;-87
2021/07/15 12:12:59;;;;;;;0.10;0.10;;;23.20;99.90;;;;;;5032637;28;20817;-88
2021/07/15 12:15:28;;;;;;;0.30;0.30;;;23.10;99.90;;;;;;5037421;28;20643;-89
2021/07/15 12:18:00;;;;;;;0.15;0.15;;;23.20;99.90;;;;;;5037983;28;20116;-89
2021/07/15 12:20:47;;;;;;;0.20;0.20;;;22.90;99.90;;;;;;5037274;28;20056;-88
2021/07/15 12:23:40;;;;;;;0.30;0.30;;;23.20;99.90;;;;;;5045895;28;20082;-88
2021/07/15 12:26:09;;;;;;;0.08;0.08;;;23.70;99.90;;;;;;5032404;28;20068;-88
2021/07/15 12:28:35;;;;;;;0.00;0.00;;;22.70;99.90;;;;;;5033427;28;20112;-88
2021/07/15 12:31:06;;;;;;;0.00;0.00;;;22.10;99.90;;;;;;5032401;28;21749;-88
2021/07/15 12:33:40;;;;;;;0.00;0.00;;;22.60;99.90;;;;;;5037931;28;20805;-88
2021/07/15 12:36:19;;;;;;;0.10;0.10;;;22.90;99.90;;;;;;5036993;28;20033;-88
2021/07/15 12:39:07;;;;;;;1.27;0.45;;;23.20;99.90;;;;;;5032320;28;20033;-89
2021/07/15 12:41:39;;;;;;;0.10;0.10;;;23.60;99.90;;;;;;5033450;28;20575;-88
2021/07/15 12:44:09;;;;;;;0.17;0.15;;;23.60;99.90;;;;;;5042877;28;20057;-89
2021/07/15 12:46:38;;;;;;;0.05;0.05;;;23.40;99.90;;;;;;5033655;28;20060;-88
2021/07/15 12:49:18;;;;;;;0.63;0.47;;;23.70;99.90;;;;;;5030462;28;20083;-88
2021/07/15 12:51:56;;;;;;;1.13;0.77;;;23.40;99.90;;;;;;5032874;28;20656;-86
2021/07/15 12:54:38;;;;;;;0.10;0.10;;;23.20;99.90;;;;;;5036760;28;20045;-87
2021/07/15 12:57:10;;;;;;;0.28;0.28;;;22.60;99.90;;;;;;5034341;28;20542;-86
2021/07/15 12:59:38;;;;;;;0.10;0.10;;;23.10;99.90;;;;;;5039810;28;20018;-91
2021/07/15 13:02:05;;;;;;;0.00;0.00;;;23.30;99.90;;;;;;5038972;28;20030;-92
2021/07/15 13:04:35;;;;;;;;;;;23.00;99.90;;;;;;5033029;28;20029;-92
2021/07/15 13:07:09;;;;;;;0.00;0.00;;;22.80;99.90;;;;;;5038330;28;19913;-92